Time;durP1;ratioP1;P1;durP2;ratioP2;P2;SDS_P1;SDS_P2;PMS_P1;PMS_P2;Temp;Humidity;BMP_temperature;BMP_pressure;BME280_temperature;BME280_humidity;BME280_pressure;Samples;Min_cycle;Max_cycle;Signal;HPM_P1;HPM_P2
2021/10/26 00:01:44;;;;;;;9.48;6.72;;;;;;;4.60;100.00;96284.91;5014473;28;24424;-79
2021/10/26 00:04:11;;;;;;;8.30;5.70;;;;;;;4.67;100.00;96283.78;5012483;28;24817;-78
2021/10/26 00:06:38;;;;;;;8.85;5.88;;;;;;;4.72;100.00;96281.94;5016500;28;24424;-79
2021/10/26 00:09:06;;;;;;;7.13;5.63;;;;;;;4.83;100.00;96273.91;5012439;28;24432;-79
2021/10/26 00:11:33;;;;;;;8.23;5.25;;;;;;;4.90;100.00;96277.94;5012091;28;24980;-79
2021/10/26 00:14:00;;;;;;;8.60;5.43;;;;;;;4.88;100.00;96281.44;5012828;28;24447;-79
2021/10/26 00:16:27;;;;;;;8.35;6.53;;;;;;;4.91;100.00;96274.50;5014969;28;24794;-80
2021/10/26 00:18:53;;;;;;;9.43;5.53;;;;;;;4.92;100.00;96277.91;5013500;28;24945;-78
2021/10/26 00:21:21;;;;;;;7.00;5.00;;;;;;;4.91;100.00;96287.31;5015932;28;24961;-79
2021/10/26 00:23:48;;;;;;;7.07;5.35;;;;;;;4.86;100.00;96286.66;5016672;28;24802;-78
2021/10/26 00:26:15;;;;;;;9.60;5.30;;;;;;;4.93;100.00;96288.13;5012239;28;24798;-78
2021/10/26 00:28:41;;;;;;;5.63;4.82;;;;;;;5.03;100.00;96284.34;5011427;28;24787;-78
2021/10/26 00:31:09;;;;;;;9.63;4.65;;;;;;;5.10;100.00;96279.88;5014823;28;24482;-79
2021/10/26 00:33:36;;;;;;;6.47;5.00;;;;;;;5.06;100.00;96280.84;5017651;28;24427;-79
2021/10/26 00:36:02;;;;;;;5.45;4.90;;;;;;;5.10;100.00;96288.41;5013537;28;24790;-79
2021/10/26 00:38:30;;;;;;;9.50;6.35;;;;;;;4.90;100.00;96290.78;5016270;28;24452;-78
2021/10/26 00:40:57;;;;;;;9.68;5.47;;;;;;;4.72;100.00;96288.81;5015003;28;25022;-79
2021/10/26 00:43:23;;;;;;;6.65;5.45;;;;;;;4.68;100.00;96293.19;5020648;28;24432;-78
2021/10/26 00:45:50;;;;;;;8.10;5.65;;;;;;;4.80;100.00;96295.38;5013851;28;24818;-79
2021/10/26 00:48:17;;;;;;;8.50;5.80;;;;;;;4.84;100.00;96296.94;5016174;28;24420;-78
2021/10/26 00:50:43;;;;;;;8.10;5.70;;;;;;;4.82;100.00;96295.31;5021058;28;24420;-79
2021/10/26 00:53:10;;;;;;;9.23;6.15;;;;;;;4.84;100.00;96301.25;5018113;28;24990;-78
2021/10/26 00:55:38;;;;;;;8.98;5.90;;;;;;;4.94;100.00;96291.53;5015088;28;24435;-79
2021/10/26 00:58:05;;;;;;;6.20;5.50;;;;;;;5.06;100.00;96294.53;5023007;28;24449;-78
2021/10/26 01:00:32;;;;;;;7.17;5.87;;;;;;;5.14;100.00;96293.44;5021430;28;24496;-79
2021/10/26 01:02:58;;;;;;;8.57;5.82;;;;;;;5.18;100.00;96298.41;5015388;28;24432;-78
2021/10/26 01:05:26;;;;;;;8.70;5.13;;;;;;;5.27;100.00;96299.84;5011685;28;24425;-78
2021/10/26 01:07:52;;;;;;;7.90;5.17;;;;;;;5.38;100.00;96300.34;5014856;28;24521;-78
2021/10/26 01:10:19;;;;;;;8.60;5.70;;;;;;;5.45;100.00;96298.38;5014825;28;24428;-77
2021/10/26 01:12:47;;;;;;;6.82;5.70;;;;;;;5.52;100.00;96302.41;5015626;28;24946;-78
2021/10/26 01:15:13;;;;;;;6.30;5.70;;;;;;;5.55;100.00;96308.28;5018105;28;24482;-78
2021/10/26 01:17:40;;;;;;;5.97;5.33;;;;;;;5.64;100.00;96307.16;5011660;28;24546;-78
2021/10/26 01:20:09;;;;;;;7.60;5.65;;;;;;;5.66;100.00;96301.94;5016809;28;24428;-79
2021/10/26 01:22:40;;;;;;;7.07;5.65;;;;;;;5.67;100.00;96306.19;5014719;28;24431;-78
2021/10/26 01:25:08;;;;;;;8.43;6.10;;;;;;;5.68;100.00;96307.88;5014244;28;24463;-79
2021/10/26 01:27:35;;;;;;;5.93;5.32;;;;;;;5.62;100.00;96302.94;5015173;28;24428;-80
2021/10/26 01:30:02;;;;;;;7.97;5.45;;;;;;;5.64;100.00;96307.16;5015311;28;24487;-79
2021/10/26 01:32:28;;;;;;;7.25;5.65;;;;;;;5.65;100.00;96307.97;5015103;28;24420;-79
2021/10/26 01:34:55;;;;;;;5.97;5.32;;;;;;;5.71;100.00;96307.75;5019047;28;24434;-79
2021/10/26 01:37:23;;;;;;;8.43;5.53;;;;;;;5.73;100.00;96311.94;5020457;28;24889;-78
2021/10/26 01:39:49;;;;;;;10.25;5.88;;;;;;;5.70;100.00;96313.78;5017806;28;25027;-78
2021/10/26 01:42:16;;;;;;;8.05;6.15;;;;;;;5.65;100.00;96313.13;5020251;28;24965;-79
2021/10/26 01:44:42;;;;;;;11.13;6.70;;;;;;;5.70;100.00;96312.06;5023776;28;24428;-79
2021/10/26 01:47:09;;;;;;;15.73;8.52;;;;;;;5.62;100.00;96316.63;5023304;28;24424;-79
2021/10/26 01:49:35;;;;;;;14.23;7.95;;;;;;;5.52;100.00;96315.25;5023021;28;24456;-79
2021/10/26 01:52:01;;;;;;;9.40;6.72;;;;;;;5.47;100.00;96314.59;5021264;28;24428;-79
2021/10/26 01:54:36;;;;;;;9.77;7.40;;;;;;;5.44;100.00;96307.81;5017673;28;24439;-79
2021/10/26 01:57:03;;;;;;;12.00;7.03;;;;;;;5.45;100.00;96314.66;5021879;28;24421;-79
2021/10/26 01:59:30;;;;;;;8.35;6.70;;;;;;;5.49;100.00;96307.69;5020159;28;24450;-79
2021/10/26 02:01:57;;;;;;;10.60;7.18;;;;;;;5.51;100.00;96305.88;5018213;28;24934;-78
2021/10/26 02:04:23;;;;;;;8.70;7.27;;;;;;;5.50;100.00;96306.78;5015109;28;24424;-78
2021/10/26 02:06:50;;;;;;;11.20;7.57;;;;;;;5.50;100.00;96307.63;5017274;28;24519;-78
2021/10/26 02:09:16;;;;;;;11.02;7.18;;;;;;;5.61;100.00;96303.84;5018748;28;24427;-78
2021/10/26 02:11:44;;;;;;;10.63;7.15;;;;;;;5.66;100.00;96305.34;5019138;28;24809;-78
2021/10/26 02:14:11;;;;;;;9.67;7.03;;;;;;;5.72;100.00;96306.88;5018039;28;24428;-78
2021/10/26 02:16:38;;;;;;;10.05;6.68;;;;;;;5.76;100.00;96317.00;5015098;28;24770;-79
2021/10/26 02:19:05;;;;;;;9.68;6.97;;;;;;;5.78;100.00;96315.22;5014824;28;24484;-78
2021/10/26 02:21:31;;;;;;;7.53;6.38;;;;;;;5.81;100.00;96312.50;5014655;28;24424;-78
2021/10/26 02:23:58;;;;;;;13.32;7.00;;;;;;;5.84;100.00;96314.16;5015082;28;24953;-78
2021/10/26 02:26:24;;;;;;;5.70;4.97;;;;;;;5.74;100.00;96317.94;5013714;28;24957;-77
2021/10/26 02:28:52;;;;;;;6.65;4.60;;;;;;;5.85;100.00;96323.53;5013960;28;24420;-77
2021/10/26 02:31:18;;;;;;;6.40;5.03;;;;;;;5.80;100.00;96320.28;5013676;28;25007;-77
2021/10/26 02:33:45;;;;;;;7.85;4.80;;;;;;;5.80;100.00;96322.88;5014016;28;24817;-77
2021/10/26 02:36:11;;;;;;;5.70;4.75;;;;;;;5.86;100.00;96316.66;5013516;28;24973;-77
2021/10/26 02:38:38;;;;;;;6.90;4.43;;;;;;;5.89;100.00;96317.38;5013806;28;24451;-77
2021/10/26 02:41:04;;;;;;;6.53;4.68;;;;;;;5.83;100.00;96312.47;5013929;28;24437;-78
2021/10/26 02:43:31;;;;;;;5.40;4.72;;;;;;;5.81;100.00;96321.97;5015321;28;24478;-79
2021/10/26 02:46:00;;;;;;;5.90;4.38;;;;;;;5.78;100.00;96320.34;5015588;28;24428;-79
2021/10/26 02:48:27;;;;;;;7.22;4.88;;;;;;;5.74;100.00;96325.63;5016424;28;24523;-78
2021/10/26 02:50:54;;;;;;;6.13;4.75;;;;;;;5.69;100.00;96322.41;5018115;28;24437;-79
2021/10/26 02:53:20;;;;;;;8.23;4.88;;;;;;;5.66;100.00;96323.34;5020376;28;24425;-79
2021/10/26 02:55:47;;;;;;;7.90;5.15;;;;;;;5.64;100.00;96324.31;5020085;28;24443;-79
2021/10/26 02:58:14;;;;;;;8.07;5.20;;;;;;;5.69;100.00;96314.69;5020327;28;24506;-78
2021/10/26 03:00:41;;;;;;;6.35;5.00;;;;;;;5.71;100.00;96313.75;5020019;28;24443;-78
2021/10/26 03:03:09;;;;;;;6.53;5.10;;;;;;;5.67;100.00;96313.88;5017111;28;24980;-78
2021/10/26 03:05:35;;;;;;;6.28;5.22;;;;;;;5.73;100.00;96317.09;5014526;28;24827;-78
2021/10/26 03:08:01;;;;;;;5.60;4.93;;;;;;;5.78;100.00;96320.34;5014237;28;24428;-78
2021/10/26 03:10:28;;;;;;;9.20;5.35;;;;;;;5.81;100.00;96327.09;5014845;28;24424;-79
2021/10/26 03:12:55;;;;;;;5.60;5.00;;;;;;;5.83;100.00;96317.63;5014881;28;24460;-79
2021/10/26 03:15:21;;;;;;;5.82;4.90;;;;;;;5.78;100.00;96329.78;5003220;28;24437;-79
2021/10/26 03:17:48;;;;;;;5.80;5.25;;;;;;;5.83;100.00;96326.16;4994149;28;24974;-78
2021/10/26 03:20:15;;;;;;;6.05;4.90;;;;;;;5.76;100.00;96329.00;5004452;28;25834;-79
2021/10/26 03:22:42;;;;;;;7.53;6.07;;;;;;;5.68;100.00;96323.31;5076571;22;25070;-74
2021/10/26 03:25:09;;;;;;;5.85;5.25;;;;;;;5.76;100.00;96327.28;5046069;28;24431;-74
2021/10/26 03:27:36;;;;;;;5.60;4.97;;;;;;;5.78;100.00;96322.94;5052598;28;24839;-74
2021/10/26 03:30:04;;;;;;;7.55;5.07;;;;;;;5.81;100.00;96333.06;5052172;28;24485;-74
2021/10/26 03:32:30;;;;;;;5.68;4.78;;;;;;;5.83;100.00;96333.03;5060794;28;25061;-74
2021/10/26 03:34:57;;;;;;;6.13;5.13;;;;;;;5.89;100.00;96329.41;5069107;28;24488;-74
2021/10/26 03:37:25;;;;;;;5.43;4.40;;;;;;;5.91;100.00;96330.19;5062464;28;24435;-74
2021/10/26 03:39:55;;;;;;;5.67;5.07;;;;;;;5.93;100.00;96331.88;5052301;28;24603;-74
2021/10/26 03:42:22;;;;;;;6.25;4.75;;;;;;;5.89;100.00;96345.66;5063730;28;24549;-74
2021/10/26 03:44:49;;;;;;;11.60;10.40;;;;;;;5.70;100.00;96340.31;5067408;28;24427;-74
2021/10/26 03:47:15;;;;;;;12.80;9.75;;;;;;;5.79;100.00;96345.16;5071948;28;24544;-74
2021/10/26 03:49:42;;;;;;;9.18;7.70;;;;;;;5.79;100.00;96337.44;5071772;28;24464;-74
2021/10/26 03:52:08;;;;;;;9.10;6.53;;;;;;;5.65;100.00;96339.66;5071252;28;24896;-75
2021/10/26 03:54:36;;;;;;;11.02;6.05;;;;;;;5.71;100.00;96336.88;5063086;28;24526;-74
2021/10/26 03:57:07;;;;;;;8.10;5.00;;;;;;;5.68;100.00;96342.13;5070480;28;24434;-74
2021/10/26 03:59:34;;;;;;;6.63;4.90;;;;;;;5.75;100.00;96337.63;5065302;28;24809;-74
2021/10/26 04:02:05;;;;;;;13.57;5.82;;;;;;;5.71;100.00;96341.16;5071532;28;24437;-74
2021/10/26 04:04:31;;;;;;;11.93;5.80;;;;;;;5.74;100.00;96336.75;5071171;28;24978;-74
2021/10/26 04:06:58;;;;;;;9.13;5.88;;;;;;;5.81;100.00;96339.97;5071584;28;24791;-74
2021/10/26 04:09:31;;;;;;;7.57;6.35;;;;;;;5.83;100.00;96349.31;5064085;28;25163;-74
2021/10/26 04:12:18;;;;;;;17.98;6.43;;;;;;;5.93;100.00;96343.84;5059942;28;24439;-74
2021/10/26 04:14:45;;;;;;;7.88;6.63;;;;;;;5.95;100.00;96350.63;5063714;28;24431;-74
2021/10/26 04:17:11;;;;;;;7.32;5.85;;;;;;;5.99;100.00;96352.19;5064389;28;25120;-75
2021/10/26 04:19:38;;;;;;;10.75;5.53;;;;;;;5.94;100.00;96351.53;5065211;28;24447;-75
2021/10/26 04:22:05;;;;;;;7.55;5.30;;;;;;;5.94;100.00;96350.69;5068933;28;24480;-75
2021/10/26 04:24:31;;;;;;;5.75;4.65;;;;;;;6.02;100.00;96346.94;5071254;28;24426;-74
2021/10/26 04:26:59;;;;;;;6.35;5.15;;;;;;;6.01;100.00;96354.72;5072191;28;24421;-74
2021/10/26 04:29:25;;;;;;;6.55;5.03;;;;;;;5.93;100.00;96352.44;5074293;28;24985;-74
2021/10/26 04:31:52;;;;;;;6.82;5.65;;;;;;;5.81;100.00;96352.81;5090011;28;24430;-74
2021/10/26 04:34:18;;;;;;;7.15;5.65;;;;;;;5.72;100.00;96360.84;5084114;28;24423;-74
2021/10/26 04:36:45;;;;;;;6.28;5.22;;;;;;;5.82;100.00;96365.63;5070535;28;24435;-75
2021/10/26 04:39:12;;;;;;;5.80;5.20;;;;;;;5.87;100.00;96370.59;5070329;28;24454;-74
2021/10/26 04:41:39;;;;;;;8.40;5.63;;;;;;;5.89;100.00;96367.97;5070694;28;24477;-75
2021/10/26 04:44:07;;;;;;;5.70;4.72;;;;;;;5.93;100.00;96369.56;5070422;28;24943;-75
2021/10/26 04:46:34;;;;;;;7.30;5.53;;;;;;;5.92;100.00;96370.44;5060405;28;25040;-75
2021/10/26 04:49:00;;;;;;;8.88;5.82;;;;;;;5.94;100.00;96369.53;5068128;28;24522;-74
2021/10/26 04:51:27;;;;;;;7.60;5.38;;;;;;;5.99;100.00;96366.78;5062398;28;24484;-75
2021/10/26 04:53:53;;;;;;;5.55;4.97;;;;;;;6.00;100.00;96374.44;5070403;28;24415;-75
2021/10/26 04:56:20;;;;;;;8.20;5.00;;;;;;;6.02;100.00;96362.38;5058585;28;24797;-75
2021/10/26 04:58:46;;;;;;;6.50;4.93;;;;;;;5.99;100.00;96367.63;5050266;28;24446;-74
2021/10/26 05:01:14;;;;;;;6.88;5.50;;;;;;;5.97;100.00;96364.28;5050579;28;24433;-75
2021/10/26 05:03:42;;;;;;;6.32;5.10;;;;;;;5.96;100.00;96372.03;5056263;28;25041;-75
2021/10/26 05:06:08;;;;;;;8.40;4.95;;;;;;;6.04;100.00;96373.47;5067073;28;24439;-74
2021/10/26 05:08:35;;;;;;;6.53;4.60;;;;;;;6.10;100.00;96369.81;5061992;28;24450;-75
2021/10/26 05:11:01;;;;;;;5.78;4.90;;;;;;;6.14;100.00;96366.25;5049999;28;24820;-75
2021/10/26 05:13:30;;;;;;;7.35;5.10;;;;;;;6.20;100.00;96363.47;5049896;28;24426;-75
2021/10/26 05:15:58;;;;;;;6.40;5.05;;;;;;;6.09;100.00;96369.88;5057266;28;24439;-74
2021/10/26 05:18:29;;;;;;;6.47;5.15;;;;;;;6.06;100.00;96369.09;5066222;28;24452;-73
2021/10/26 05:20:57;;;;;;;6.15;4.88;;;;;;;6.07;100.00;96373.31;5067055;28;24533;-75
2021/10/26 05:23:24;;;;;;;5.45;4.85;;;;;;;6.13;100.00;96368.88;5064857;28;24804;-75
2021/10/26 05:25:52;;;;;;;6.60;4.82;;;;;;;6.15;100.00;96370.47;5069729;28;24517;-75
2021/10/26 05:28:19;;;;;;;7.07;5.32;;;;;;;6.17;100.00;96368.72;5061911;28;24988;-74
2021/10/26 05:30:45;;;;;;;6.90;5.00;;;;;;;6.13;100.00;96374.03;5070282;28;24426;-67
2021/10/26 05:33:13;;;;;;;7.70;5.20;;;;;;;6.16;100.00;96369.63;5070193;28;24446;-75
2021/10/26 05:35:40;;;;;;;8.47;5.80;;;;;;;6.11;100.00;96373.22;5070086;28;24415;-74
2021/10/26 05:38:07;;;;;;;8.15;5.45;;;;;;;6.13;100.00;96371.44;5070276;28;24464;-73
2021/10/26 05:40:33;;;;;;;12.15;5.10;;;;;;;6.16;100.00;96363.63;5071090;28;24990;-73
2021/10/26 05:43:00;;;;;;;5.83;5.10;;;;;;;6.20;100.00;96367.78;5071312;28;24457;-73
2021/10/26 05:45:26;;;;;;;9.60;6.13;;;;;;;6.25;100.00;96358.16;5055462;28;24427;-74
2021/10/26 05:47:52;;;;;;;9.95;6.85;;;;;;;6.24;100.00;96366.75;5051268;28;24431;-74
2021/10/26 05:50:19;;;;;;;7.65;6.85;;;;;;;6.23;100.00;96377.91;5050862;28;24418;-74
2021/10/26 05:52:47;;;;;;;14.27;6.97;;;;;;;6.23;100.00;96375.34;5050589;28;24439;-74
2021/10/26 05:55:13;;;;;;;9.45;6.13;;;;;;;6.23;100.00;96372.78;5051097;28;24489;-74
2021/10/26 05:57:40;;;;;;;6.25;5.38;;;;;;;6.33;100.00;96378.44;5050807;28;24411;-73
2021/10/26 06:00:08;;;;;;;7.53;5.38;;;;;;;6.37;100.00;96380.84;5050918;28;24534;-74
2021/10/26 06:02:34;;;;;;;7.78;5.50;;;;;;;6.44;100.00;96384.03;5050346;28;24427;-73
2021/10/26 06:05:01;;;;;;;6.93;5.50;;;;;;;6.47;100.00;96377.03;5049467;28;24955;-73
2021/10/26 06:07:27;;;;;;;6.65;5.30;;;;;;;6.46;100.00;96383.09;5049519;28;25011;-74
2021/10/26 06:09:55;;;;;;;8.20;5.80;;;;;;;6.51;100.00;96393.22;5060369;28;24780;-73
2021/10/26 06:12:27;;;;;;;7.22;6.15;;;;;;;6.44;100.00;96386.59;5069630;28;24990;-75
2021/10/26 06:14:53;;;;;;;7.00;6.27;;;;;;;6.40;100.00;96392.75;5069894;28;24796;-73
2021/10/26 06:17:19;;;;;;;10.13;6.13;;;;;;;6.43;100.00;96393.50;5069864;28;24468;-72
2021/10/26 06:19:46;;;;;;;10.13;7.20;;;;;;;6.35;100.00;96392.94;5069468;28;24449;-72
2021/10/26 06:22:12;;;;;;;9.55;6.97;;;;;;;6.38;100.00;96397.13;5069616;28;24491;-72
2021/10/26 06:24:41;;;;;;;12.23;7.32;;;;;;;6.29;100.00;96411.16;5069523;28;24430;-73
2021/10/26 06:27:09;;;;;;;32.70;8.65;;;;;;;6.11;100.00;96415.22;5072872;28;24853;-74
2021/10/26 06:29:35;;;;;;;17.33;7.32;;;;;;;6.17;100.00;96422.72;5073423;28;24418;-73
2021/10/26 06:32:02;;;;;;;9.73;6.93;;;;;;;6.21;100.00;96423.44;5073557;28;24512;-73
2021/10/26 06:34:28;;;;;;;8.10;6.53;;;;;;;6.23;100.00;96424.22;5072721;28;24895;-73
2021/10/26 06:36:54;;;;;;;8.68;6.30;;;;;;;6.22;100.00;96422.56;5073379;28;24783;-73
2021/10/26 06:39:21;;;;;;;9.48;6.03;;;;;;;6.22;100.00;96432.84;5072912;28;24457;-73
2021/10/26 06:41:48;;;;;;;6.82;6.05;;;;;;;6.26;100.00;96434.41;5073424;28;24473;-74
2021/10/26 06:44:16;;;;;;;6.88;5.53;;;;;;;6.29;100.00;96445.44;5072909;28;24509;-74
2021/10/26 06:46:43;;;;;;;7.50;5.22;;;;;;;6.34;100.00;96440.16;5072936;28;24434;-74
2021/10/26 06:49:10;;;;;;;5.63;4.88;;;;;;;6.43;100.00;96444.94;5072863;28;24423;-73
2021/10/26 06:51:36;;;;;;;6.05;5.10;;;;;;;6.50;100.00;96451.56;5072951;28;24875;-74
2021/10/26 06:54:02;;;;;;;6.28;4.97;;;;;;;6.57;100.00;96448.78;5072845;28;24955;-73
2021/10/26 06:56:29;;;;;;;6.15;4.70;;;;;;;6.61;100.00;96453.75;5072639;28;24431;-72
2021/10/26 06:58:56;;;;;;;6.28;5.07;;;;;;;6.65;100.00;96446.75;5073619;28;24801;-73
2021/10/26 07:01:24;;;;;;;5.53;4.77;;;;;;;6.72;100.00;96454.19;5073112;28;24433;-74
2021/10/26 07:03:50;;;;;;;6.55;5.00;;;;;;;6.73;100.00;96455.03;5073590;28;24418;-74
2021/10/26 07:06:17;;;;;;;5.28;4.55;;;;;;;6.75;100.00;96463.56;5073437;28;24438;-73
2021/10/26 07:08:43;;;;;;;7.72;4.72;;;;;;;6.83;100.00;96461.53;5073431;28;24417;-73
2021/10/26 07:11:10;;;;;;;6.18;4.72;;;;;;;6.81;100.00;96470.19;5053682;28;24419;-73
2021/10/26 07:13:38;;;;;;;5.25;4.55;;;;;;;6.90;100.00;96473.28;5053831;28;24430;-73
2021/10/26 07:16:05;;;;;;;5.25;4.70;;;;;;;7.00;100.00;96474.59;5053379;28;24493;-73
2021/10/26 07:18:33;;;;;;;6.87;5.50;;;;;;;7.10;100.00;96475.09;5053019;28;24427;-73
2021/10/26 07:21:00;;;;;;;6.15;5.20;;;;;;;7.18;100.00;96480.81;5053032;28;24457;-73
2021/10/26 07:23:26;;;;;;;5.95;5.32;;;;;;;7.16;100.00;96481.78;5052872;28;24493;-73
2021/10/26 07:25:54;;;;;;;6.68;5.28;;;;;;;7.11;100.00;96481.09;5053453;28;24442;-73
2021/10/26 07:28:22;;;;;;;5.35;4.85;;;;;;;7.15;100.00;96487.81;5053785;28;24459;-72
2021/10/26 07:30:49;;;;;;;6.75;5.05;;;;;;;7.16;100.00;96490.34;5053347;28;24422;-73
2021/10/26 07:33:18;;;;;;;5.57;5.07;;;;;;;7.20;100.00;96491.91;5053228;28;24439;-73
2021/10/26 07:35:48;;;;;;;6.15;5.00;;;;;;;7.24;100.00;96492.63;5053641;28;24504;-73
2021/10/26 07:38:25;;;;;;;7.18;5.00;;;;;;;7.28;100.00;96484.72;5053210;28;21167;-73
2021/10/26 07:40:52;;;;;;;6.82;5.25;;;;;;;7.35;100.00;96487.06;5071604;28;24451;-73
2021/10/26 07:43:18;;;;;;;6.70;5.13;;;;;;;7.46;100.00;96487.50;5073363;28;24423;-73
2021/10/26 07:45:45;;;;;;;7.30;5.00;;;;;;;7.50;100.00;96489.88;5072355;28;24484;-75
2021/10/26 07:48:11;;;;;;;5.72;4.88;;;;;;;7.54;100.00;96487.19;5072449;28;24411;-75
2021/10/26 07:50:38;;;;;;;7.40;5.68;;;;;;;7.57;100.00;96492.22;5072159;28;24415;-74
2021/10/26 07:53:06;;;;;;;5.28;4.78;;;;;;;7.60;100.00;96498.09;5071787;28;24442;-73
2021/10/26 07:55:32;;;;;;;8.50;5.03;;;;;;;7.62;100.00;96492.88;5071648;28;20883;-74
2021/10/26 07:57:59;;;;;;;5.57;4.88;;;;;;;7.61;100.00;96507.50;5072066;28;20757;-75
2021/10/26 08:00:26;;;;;;;9.75;4.95;;;;;;;7.70;100.00;96504.56;5071842;28;24438;-75
2021/10/26 08:02:52;;;;;;;7.80;5.75;;;;;;;7.66;100.00;96510.72;5071657;28;24427;-75
2021/10/26 08:05:19;;;;;;;6.47;5.78;;;;;;;7.54;100.00;96498.34;5071593;28;24780;-74
2021/10/26 08:07:45;;;;;;;11.25;8.70;;;;;;;7.49;100.00;96508.81;5071838;28;24484;-74
2021/10/26 08:10:14;;;;;;;9.75;8.25;;;;;;;7.60;100.00;96507.53;5058224;28;24427;-74
2021/10/26 08:12:40;;;;;;;7.20;6.50;;;;;;;7.70;100.00;96508.88;5051646;28;24423;-73
2021/10/26 08:15:07;;;;;;;9.52;6.43;;;;;;;7.72;100.00;96510.50;5051487;28;24419;-73
2021/10/26 08:17:34;;;;;;;7.88;6.18;;;;;;;7.82;100.00;96520.44;5051724;28;21129;-73
2021/10/26 08:20:01;;;;;;;8.85;6.40;;;;;;;7.90;100.00;96521.81;5052390;28;24447;-74
2021/10/26 08:22:32;;;;;;;8.68;6.05;;;;;;;7.95;100.00;96521.63;5053503;28;24542;-74
2021/10/26 08:25:01;;;;;;;8.02;5.65;;;;;;;8.00;100.00;96515.38;5051213;28;20750;-72
2021/10/26 08:27:30;;;;;;;7.43;5.75;;;;;;;8.05;100.00;96516.94;5051998;28;20813;-72
2021/10/26 08:30:07;;;;;;;8.18;6.28;;;;;;;8.07;100.00;96521.13;5051758;28;21094;-74
2021/10/26 08:35:24;;;;;;;9.75;5.93;;;;;;;8.20;100.00;96512.00;5050736;28;21364;-74
2021/10/26 08:37:52;;;;;;;12.07;5.57;;;;;;;8.17;100.00;96513.84;5051531;28;20678;-74
2021/10/26 08:40:20;;;;;;;7.97;5.50;;;;;;;8.23;100.00;96509.28;5064441;28;24457;-70
2021/10/26 08:42:48;;;;;;;7.78;5.72;;;;;;;8.24;100.00;96504.97;5070951;28;20770;-73
2021/10/26 08:45:16;;;;;;;8.75;6.22;;;;;;;8.29;100.00;96508.19;5070575;28;21168;-73
2021/10/26 08:47:44;;;;;;;7.53;5.47;;;;;;;8.39;100.00;96495.78;5070592;28;20753;-73
2021/10/26 08:50:10;;;;;;;6.78;5.38;;;;;;;8.42;100.00;96498.22;5070300;28;24978;-73
2021/10/26 08:52:37;;;;;;;8.27;5.80;;;;;;;8.47;100.00;96507.44;5070832;28;24442;-73
2021/10/26 08:55:06;;;;;;;8.13;5.45;;;;;;;8.49;100.00;96507.34;5070766;28;21128;-73
2021/10/26 08:57:33;;;;;;;8.27;5.78;;;;;;;8.56;100.00;96502.78;5071102;28;20768;-73
2021/10/26 09:00:05;;;;;;;9.98;5.63;;;;;;;8.61;100.00;96506.84;5070943;28;20774;-73
2021/10/26 09:02:37;;;;;;;10.10;5.88;;;;;;;8.61;100.00;96501.69;5070423;28;24529;-73
2021/10/26 09:05:09;;;;;;;9.47;5.33;;;;;;;8.71;100.00;96502.97;5070655;28;20702;-73
2021/10/26 09:07:36;;;;;;;7.20;4.88;;;;;;;8.88;100.00;96507.38;5071081;28;20719;-74
2021/10/26 09:10:13;;;;;;;5.85;4.93;;;;;;;9.04;100.00;96498.94;5057743;28;24656;-75
2021/10/26 09:18:24;;;;;;;7.22;5.13;;;;;;;9.42;100.00;96495.44;5050739;28;20811;-74
2021/10/26 09:20:51;;;;;;;10.80;5.17;;;;;;;9.47;100.00;96500.41;5050568;28;24493;-74
2021/10/26 09:23:19;;;;;;;8.18;4.82;;;;;;;9.60;100.00;96496.34;5051115;28;24431;-74
2021/10/26 09:25:46;;;;;;;11.88;4.80;;;;;;;9.65;100.00;96493.53;5050733;28;24483;-74
2021/10/26 09:28:14;;;;;;;10.20;4.90;;;;;;;9.72;100.00;96497.50;5050905;28;24438;-73
2021/10/26 09:30:44;;;;;;;5.85;4.10;;;;;;;9.77;100.00;96497.28;5050830;28;24868;-73
2021/10/26 09:33:11;;;;;;;6.72;4.03;;;;;;;9.87;100.00;96496.75;5050342;28;24438;-73
2021/10/26 09:35:38;;;;;;;5.80;4.15;;;;;;;10.01;100.00;96511.63;5049957;28;24418;-73
2021/10/26 09:38:05;;;;;;;5.23;4.00;;;;;;;10.04;100.00;96508.03;5050322;28;24466;-68
2021/10/26 09:40:42;;;;;;;4.70;3.90;;;;;;;10.05;100.00;96500.22;5065524;28;24534;-72
2021/10/26 09:43:09;;;;;;;6.03;4.10;;;;;;;10.01;100.00;96510.75;5070074;28;24567;-72
2021/10/26 09:45:36;;;;;;;5.75;4.07;;;;;;;10.02;100.00;96513.31;5069738;28;24835;-72
2021/10/26 09:48:12;;;;;;;4.68;3.70;;;;;;;10.02;100.00;96505.53;5069701;28;24473;-72
2021/10/26 09:50:39;;;;;;;6.15;3.97;;;;;;;10.04;100.00;96508.03;5070265;28;24418;-73
2021/10/26 09:53:07;;;;;;;7.85;3.85;;;;;;;10.12;100.00;96505.91;5070002;28;24419;-73
2021/10/26 09:55:37;;;;;;;8.52;4.32;;;;;;;10.25;100.00;96514.78;5069755;28;24425;-73
2021/10/26 09:58:08;;;;;;;10.35;4.15;;;;;;;10.38;100.00;96513.28;5070023;28;24969;-73
2021/10/26 10:00:38;;;;;;;7.03;3.78;;;;;;;10.62;100.00;96518.94;5072301;28;24620;-73
2021/10/26 10:03:05;;;;;;;6.97;3.97;;;;;;;10.75;100.00;96521.72;5074078;28;24434;-73
2021/10/26 10:05:35;;;;;;;7.97;4.03;;;;;;;10.96;100.00;96518.97;5074011;28;24421;-73
2021/10/26 10:08:19;;;;;;;9.07;4.15;;;;;;;11.14;100.00;96513.63;5073863;28;24427;-73
2021/10/26 10:10:45;;;;;;;8.13;3.70;;;;;;;11.38;100.00;96506.31;5056095;28;24495;-73
2021/10/26 10:13:13;;;;;;;6.63;3.13;;;;;;;11.55;100.00;96507.97;5053410;28;24773;-74
2021/10/26 10:15:43;;;;;;;5.40;2.95;;;;;;;11.57;100.00;96513.09;5053979;28;24493;-74
2021/10/26 10:18:11;;;;;;;4.07;2.40;;;;;;;11.48;100.00;96508.41;5054105;28;24485;-74
2021/10/26 10:20:39;;;;;;;5.47;2.90;;;;;;;11.47;100.00;96504.97;5053460;28;24488;-75
2021/10/26 10:23:07;;;;;;;3.63;2.22;;;;;;;11.49;100.00;96510.06;5053690;28;24430;-73
2021/10/26 10:25:34;;;;;;;3.80;2.50;;;;;;;11.55;100.00;96514.94;5053135;28;24465;-74
2021/10/26 10:28:03;;;;;;;3.45;1.95;;;;;;;11.61;100.00;96518.03;5053195;28;24420;-75
2021/10/26 10:30:30;;;;;;;3.20;2.00;;;;;;;11.70;100.00;96516.66;5053406;28;24403;-73
2021/10/26 10:32:58;;;;;;;2.92;1.70;;;;;;;11.80;100.00;96511.81;5053337;28;25103;-74
2021/10/26 10:35:28;;;;;;;3.72;2.33;;;;;;;11.79;100.00;96513.59;5053232;28;24427;-75
2021/10/26 10:37:58;;;;;;;3.88;1.83;;;;;;;11.95;100.00;96510.16;5053900;28;24481;-73
2021/10/26 10:40:27;;;;;;;4.03;1.77;;;;;;;12.04;100.00;96509.63;5052725;28;24860;-73
2021/10/26 10:42:55;;;;;;;1.83;1.38;;;;;;;12.17;100.00;96510.59;5053694;28;24435;-74
2021/10/26 10:45:25;;;;;;;3.37;1.10;;;;;;;12.19;100.00;96510.50;5053764;28;24501;-74
2021/10/26 10:47:54;;;;;;;2.28;1.25;;;;;;;12.21;100.00;96506.91;5053886;28;24430;-73
2021/10/26 10:50:29;;;;;;;1.73;0.98;;;;;;;12.30;100.00;96513.31;5053252;28;24443;-74
2021/10/26 10:53:13;;;;;;;2.92;1.15;;;;;;;12.23;100.00;96512.00;5053017;28;24430;-73
2021/10/26 10:55:42;;;;;;;1.70;1.10;;;;;;;12.20;100.00;96510.44;5053046;28;24438;-74
2021/10/26 10:58:30;;;;;;;2.17;1.23;;;;;;;12.21;100.00;96514.69;5053418;28;24781;-75
2021/10/26 11:01:23;;;;;;;2.50;1.10;;;;;;;12.22;100.00;96513.75;5053063;28;24446;-73
2021/10/26 11:03:50;;;;;;;2.95;1.35;;;;;;;12.22;100.00;96515.53;5053270;28;25007;-74
2021/10/26 11:06:51;;;;;;;4.70;1.40;;;;;;;12.29;100.00;96509.91;5053371;28;24461;-75
2021/10/26 11:09:42;;;;;;;1.90;1.27;;;;;;;12.30;100.00;96506.38;5052687;28;24481;-75
2021/10/26 11:12:11;;;;;;;2.53;1.15;;;;;;;12.29;99.26;96509.06;5052331;28;24815;-74
2021/10/26 11:14:42;;;;;;;6.10;1.55;;;;;;;12.33;97.05;96513.97;5052888;28;24438;-74
2021/10/26 11:17:53;;;;;;;3.03;1.17;;;;;;;12.31;97.44;96507.19;5052690;28;24987;-71
2021/10/26 11:20:42;;;;;;;1.95;0.90;;;;;;;12.32;97.67;96511.50;4990744;28;24810;-73
2021/10/26 11:23:14;;;;;;;3.50;1.40;;;;;;;12.34;96.73;96507.03;5046722;28;24445;-73
2021/10/26 11:25:45;;;;;;;3.33;1.25;;;;;;;12.30;99.29;96506.38;5052051;28;24454;-72
2021/10/26 11:28:46;;;;;;;4.32;1.20;;;;;;;12.21;99.34;96511.28;5051884;28;24458;-73
2021/10/26 11:31:16;;;;;;;2.15;1.00;;;;;;;12.17;99.67;96510.59;5052109;28;24493;-72
2021/10/26 11:33:55;;;;;;;2.65;1.20;;;;;;;12.16;100.00;96514.09;5052243;28;24430;-73
2021/10/26 11:36:30;;;;;;;2.35;1.00;;;;;;;12.08;99.72;96505.94;5051919;28;24411;-73
2021/10/26 11:38:57;;;;;;;3.78;1.38;;;;;;;12.06;100.00;96510.38;5052188;28;24441;-73
2021/10/26 11:41:26;;;;;;;5.80;1.27;;;;;;;12.00;100.00;96508.13;5052107;28;24454;-72
2021/10/26 11:43:55;;;;;;;3.20;1.40;;;;;;;12.03;100.00;96513.16;5051671;28;24423;-73
2021/10/26 11:46:29;;;;;;;2.97;1.73;;;;;;;11.98;100.00;96510.81;5051867;28;24423;-73